ENSO

Stord Airport

Leirvik, Norway
METAR ENSO 141850Z 12010KT 9999 BKN057 03/M05 Q1030
Observed Flight Rules
Dec-14 @ 18:50 UTC (3 hours ago) Visual Flight Rules
Wind Visibility Clouds
120° at 10 knots 10,000+ meters
  • Broken at 5,700' AGL
Temperatures Readings
Current 3°C / 37°F
Dewpoint -5°C / 23°F
Humidity 56%
Altimeter 30.41" Hg
Pressure 1030 hPa
Elevation 49
METAR ENSO 141850Z 12010KT 9999 BKN057 03/M05 Q1030
Observed Flight Rules
Dec-14 @ 18:50 UTC
(3 hours ago)
VFR
Wind Visibility
120° at 10 knots 10,000+ meters
Clouds
  • Broken at 5,700' AGL
Temperature Dewpoint
3°C / 37°F -5°C / 23°F
Humidity Altimeter Pressure
56% 30.41" Hg 1030 hPa